Time;durP1;ratioP1;P1;durP2;ratioP2;P2;SDS_P1;SDS_P2;PMS_P1;PMS_P2;Temp;Humidity;BMP_temperature;BMP_pressure;BME280_temperature;BME280_humidity;BME280_pressure;Samples;Min_cycle;Max_cycle;Signal;HPM_P1;HPM_P2
2021/12/14 00:01:48;;;;;;;53.83;29.98;;;;;;;3.81;77.03;101270.14;1740576;82;21240;-57
2021/12/14 00:04:58;;;;;;;52.73;27.73;;;;;;;3.77;77.48;101283.53;1740322;82;21366;-58
2021/12/14 00:08:06;;;;;;;51.33;27.98;;;;;;;3.81;77.78;101293.16;1741035;82;21205;-57
2021/12/14 00:11:14;;;;;;;57.73;29.55;;;;;;;3.85;77.86;101294.69;1740568;82;21162;-59
2021/12/14 00:15:07;;;;;;;45.52;26.60;;;;;;;3.90;77.99;101291.13;1740047;82;21224;-56
2021/12/14 00:17:35;;;;;;;;;;;;;;;3.93;77.96;101288.70;1735740;81;21872;-57
2021/12/14 00:20:54;;;;;;;45.12;26.48;;;;;;;3.96;77.94;101289.83;1740226;82;20239;-57
2021/12/14 00:24:06;;;;;;;51.20;28.40;;;;;;;3.98;77.93;101288.72;1740126;82;21236;-57
2021/12/14 00:27:17;;;;;;;50.88;27.42;;;;;;;4.01;77.85;101297.98;1740508;82;21248;-57
2021/12/14 00:30:23;;;;;;;58.42;30.62;;;;;;;4.02;77.77;101294.80;1740453;82;21860;-57
2021/12/14 00:33:34;;;;;;;53.60;31.20;;;;;;;4.00;77.70;101295.38;1740236;82;21233;-57
2021/12/14 00:36:41;;;;;;;60.88;31.48;;;;;;;4.02;77.79;101295.67;1740675;82;21280;-57
2021/12/14 00:39:49;;;;;;;50.60;29.18;;;;;;;4.05;77.80;101296.80;1740579;82;21224;-56
2021/12/14 00:42:55;;;;;;;59.40;29.37;;;;;;;4.03;77.57;101293.33;1740067;82;21292;-56
2021/12/14 00:46:01;;;;;;;55.60;30.43;;;;;;;3.92;77.52;101285.59;1739974;82;21198;-58
2021/12/14 00:49:08;;;;;;;60.50;30.25;;;;;;;3.92;77.84;101286.47;1738207;82;21264;-57
2021/12/14 00:52:14;;;;;;;55.73;29.87;;;;;;;3.93;77.92;101271.94;1740318;82;21355;-57
2021/12/14 00:55:27;;;;;;;55.67;31.02;;;;;;;3.94;77.96;101275.05;1740491;82;21204;-57
2021/12/14 00:58:36;;;;;;;53.60;30.75;;;;;;;3.96;77.92;101269.03;1733182;82;21287;-56
2021/12/14 01:01:47;;;;;;;51.92;30.97;;;;;;;3.95;77.91;101267.28;1740089;82;21235;-56
2021/12/14 01:05:03;;;;;;;53.75;29.02;;;;;;;3.98;77.95;101274.34;1740186;82;21220;-57
2021/12/14 01:08:10;;;;;;;52.33;29.42;;;;;;;4.01;77.96;101267.34;1740302;82;21233;-57
2021/12/14 01:11:21;;;;;;;52.83;30.10;;;;;;;4.01;77.89;101266.83;1740557;82;21332;-57
2021/12/14 01:14:40;;;;;;;54.33;29.98;;;;;;;4.00;77.85;101256.98;1740771;82;21333;-58
2021/12/14 01:18:00;;;;;;;54.35;29.65;;;;;;;4.02;77.86;101255.51;1740436;81;21185;-57
2021/12/14 01:20:59;;;;;;;60.75;29.63;;;;;;;4.02;77.94;101244.67;1740299;82;21291;-57
2021/12/14 01:24:07;;;;;;;55.85;31.05;;;;;;;4.03;77.89;101239.14;1741691;82;21575;-57
2021/12/14 01:27:16;;;;;;;59.93;29.75;;;;;;;4.03;77.81;101240.50;1740233;82;21331;-57
2021/12/14 01:30:30;;;;;;;53.28;29.25;;;;;;;4.00;77.79;101229.89;1740751;82;21201;-56
2021/12/14 01:33:39;;;;;;;57.05;29.45;;;;;;;3.95;77.87;101237.97;1740327;82;21193;-58
2021/12/14 01:36:51;;;;;;;51.37;28.17;;;;;;;3.97;77.98;101247.73;1740230;82;21209;-57
2021/12/14 01:40:06;;;;;;;58.90;30.10;;;;;;;3.98;77.98;101252.16;1740573;82;21362;-56
2021/12/14 01:43:08;;;;;;;56.15;29.32;;;;;;;4.00;78.05;101254.27;1732304;82;21282;-57
2021/12/14 01:46:40;;;;;;;56.05;28.60;;;;;;;4.03;78.05;101252.69;1740290;82;21339;-58
2021/12/14 01:50:00;;;;;;;59.03;28.98;;;;;;;4.05;78.06;101255.28;1707908;82;21281;-58
2021/12/14 01:53:21;;;;;;;58.15;28.73;;;;;;;4.06;78.05;101251.10;1667769;84;21571;-57
2021/12/14 01:56:45;;;;;;;53.60;29.55;;;;;;;4.05;78.07;101253.93;1689873;85;21813;-57
2021/12/14 01:59:56;;;;;;;48.48;28.25;;;;;;;4.06;78.15;101247.04;1689715;84;21394;-58
2021/12/14 02:03:05;;;;;;;56.45;29.45;;;;;;;4.05;77.96;101238.55;1689690;85;21434;-57
2021/12/14 02:06:12;;;;;;;59.38;28.30;;;;;;;4.01;77.99;101241.60;1689826;85;21200;-57
2021/12/14 02:09:21;;;;;;;51.35;26.42;;;;;;;4.01;78.09;101245.66;1689805;85;21880;-58
2021/12/14 02:12:36;;;;;;;56.68;29.27;;;;;;;4.02;78.12;101247.39;1689878;85;21382;-57
2021/12/14 02:16:01;;;;;;;52.90;28.60;;;;;;;3.98;78.10;101245.38;1689789;85;21189;-56
2021/12/14 02:19:17;;;;;;;47.70;26.00;;;;;;;3.96;78.16;101243.30;1690786;83;21405;-58
2021/12/14 02:22:40;;;;;;;54.60;26.40;;;;;;;3.95;78.13;101241.55;1691550;83;21751;-58
2021/12/14 02:25:50;;;;;;;52.65;27.10;;;;;;;3.95;78.26;101244.73;1676375;85;21402;-58
2021/12/14 02:28:57;;;;;;;68.40;29.65;;;;;;;3.95;78.34;101236.13;1657083;86;21888;-58
2021/12/14 02:32:18;;;;;;;53.30;27.02;;;;;;;3.95;78.27;101234.78;1656834;86;21365;-58
2021/12/14 02:35:28;;;;;;;53.38;28.05;;;;;;;3.93;78.31;101236.73;1670031;86;21592;-57
2021/12/14 02:38:34;;;;;;;53.95;26.68;;;;;;;3.91;78.41;101233.29;1670500;86;21229;-57
2021/12/14 02:41:39;;;;;;;56.30;27.95;;;;;;;3.94;78.51;101242.54;1670045;86;21245;-57
2021/12/14 02:44:47;;;;;;;48.98;27.65;;;;;;;3.96;78.54;101233.82;1669970;86;21245;-58
2021/12/14 02:47:54;;;;;;;53.48;28.80;;;;;;;3.97;78.47;101234.66;1670155;86;21252;-58
2021/12/14 02:51:00;;;;;;;53.10;27.30;;;;;;;3.95;78.47;101232.07;1663276;85;21256;-57
2021/12/14 02:54:16;;;;;;;52.25;27.15;;;;;;;3.98;78.50;101233.20;1662257;86;21221;-57
2021/12/14 02:57:25;;;;;;;50.45;27.37;;;;;;;3.99;78.51;101232.23;1662756;85;21414;-57
2021/12/14 03:00:46;;;;;;;52.83;28.27;;;;;;;4.02;78.44;101245.55;1662764;86;21383;-57
2021/12/14 03:03:52;;;;;;;43.73;26.60;;;;;;;4.02;78.46;101248.74;1663728;85;21245;-57
2021/12/14 03:07:01;;;;;;;57.15;28.35;;;;;;;4.05;78.47;101243.09;1662994;86;21201;-57
2021/12/14 03:13:23;;;;;;;53.02;28.32;;;;;;;4.06;78.40;101247.04;1662947;86;21268;-57
2021/12/14 03:16:39;;;;;;;58.70;28.83;;;;;;;4.06;78.33;101247.04;1662866;85;21483;-59
2021/12/14 03:19:46;;;;;;;51.70;27.98;;;;;;;4.07;78.33;101246.08;1662526;86;21383;-58
2021/12/14 03:23:16;;;;;;;57.83;29.50;;;;;;;4.06;78.36;101247.04;1664982;85;21391;-58
2021/12/14 03:26:24;;;;;;;56.55;28.70;;;;;;;4.05;78.33;101254.80;1662767;86;21340;-58
2021/12/14 03:29:36;;;;;;;50.15;27.48;;;;;;;4.03;78.39;101254.52;1662939;85;21394;-58
2021/12/14 03:32:43;;;;;;;55.83;30.57;;;;;;;4.03;78.57;101255.88;1663145;86;21265;-57
2021/12/14 03:36:04;;;;;;;62.88;29.07;;;;;;;4.05;78.71;101248.52;1663230;85;21242;-58
2021/12/14 03:39:22;;;;;;;67.97;29.25;;;;;;;4.06;78.78;101253.81;1663015;86;21387;-58
2021/12/14 03:42:37;;;;;;;55.70;29.85;;;;;;;4.07;78.87;101245.20;1662454;86;21398;-57
2021/12/14 03:45:43;;;;;;;71.05;31.70;;;;;;;4.08;78.89;101246.92;1630942;87;21232;-58
2021/12/14 03:48:49;;;;;;;75.90;33.38;;;;;;;4.02;78.83;101245.55;1594507;90;21446;-57
2021/12/14 03:51:55;;;;;;;71.85;32.88;;;;;;;3.95;79.09;101241.55;1634761;85;21233;-56
2021/12/14 03:55:03;;;;;;;69.82;33.08;;;;;;;3.96;79.38;101252.78;1646390;87;21281;-58
2021/12/14 03:58:16;;;;;;;63.90;32.98;;;;;;;3.99;79.48;101251.67;1649322;86;21426;-58
2021/12/14 04:01:35;;;;;;;68.55;34.03;;;;;;;3.97;79.61;101256.33;1646528;86;21233;-58
2021/12/14 04:04:52;;;;;;;68.02;33.98;;;;;;;3.95;79.78;101248.32;1646724;87;21312;-58
2021/12/14 04:07:57;;;;;;;73.35;34.48;;;;;;;3.90;79.80;101251.02;1651822;87;21267;-58
2021/12/14 04:11:03;;;;;;;75.67;35.58;;;;;;;3.89;80.07;101251.97;1651902;87;21213;-59
2021/12/14 04:14:08;;;;;;;71.15;35.78;;;;;;;3.92;80.30;101249.91;1649430;85;21384;-58
2021/12/14 04:17:18;;;;;;;70.95;34.65;;;;;;;3.96;80.43;101254.13;1634416;88;21233;-57
2021/12/14 04:20:24;;;;;;;72.53;35.38;;;;;;;3.97;80.38;101252.27;1683030;85;21367;-58
2021/12/14 04:23:33;;;;;;;69.22;32.13;;;;;;;3.97;80.40;101250.44;1621258;87;21237;-58
2021/12/14 04:26:45;;;;;;;65.75;32.38;;;;;;;3.96;80.45;101245.14;1634554;86;21758;-57
2021/12/14 04:29:50;;;;;;;67.30;32.03;;;;;;;3.96;80.45;101241.08;1682724;84;21421;-57
2021/12/14 04:32:57;;;;;;;60.83;32.60;;;;;;;3.94;80.46;101245.25;1619242;87;21323;-58
2021/12/14 04:36:03;;;;;;;65.03;33.13;;;;;;;3.93;80.52;101257.55;1642072;87;21395;-57
2021/12/14 04:53:13;;;;;;;65.65;32.88;;;;;;;3.92;80.86;101259.38;1641324;85;21249;-57
2021/12/14 04:56:24;;;;;;;65.65;33.53;;;;;;;3.87;80.84;101267.48;1589576;89;21247;-56
2021/12/14 04:59:32;;;;;;;55.43;29.45;;;;;;;3.87;81.01;101266.97;1601273;89;21387;-58
2021/12/14 05:02:40;;;;;;;58.52;32.50;;;;;;;3.86;81.06;101258.97;1600989;89;21276;-57
2021/12/14 05:05:57;;;;;;;70.35;39.25;;;;;;;3.86;81.22;101272.03;1600946;89;21276;-57
2021/12/14 05:09:23;;;;;;;81.67;40.75;;;;;;;3.83;81.17;101272.25;1601221;89;21380;-58
2021/12/14 05:12:37;;;;;;;68.87;35.88;;;;;;;3.84;81.31;101282.09;1601138;89;21293;-58
2021/12/14 05:15:47;;;;;;;76.80;40.12;;;;;;;3.85;81.41;101287.03;1601206;89;21304;-58
2021/12/14 05:18:56;;;;;;;69.97;36.40;;;;;;;3.80;81.26;101287.84;1601116;89;21279;-58
2021/12/14 05:22:08;;;;;;;70.90;35.08;;;;;;;3.78;81.59;101289.31;1601235;89;21283;-58
2021/12/14 05:25:26;;;;;;;65.15;34.98;;;;;;;3.83;81.71;101295.27;1601529;89;21228;-57
2021/12/14 05:28:37;;;;;;;83.90;42.23;;;;;;;3.87;81.74;101296.77;1601174;89;21291;-57
2021/12/14 05:31:51;;;;;;;85.77;46.13;;;;;;;3.92;81.72;101314.91;1601395;89;21269;-57
2021/12/14 05:34:57;;;;;;;90.77;47.70;;;;;;;3.92;81.56;101312.20;1600718;89;21271;-57
2021/12/14 05:38:06;;;;;;;89.85;46.05;;;;;;;3.92;81.63;101317.62;1626107;88;21267;-56
2021/12/14 05:44:28;;;;;;;68.65;38.65;;;;;;;3.93;81.40;101317.98;1580111;89;21264;-58
2021/12/14 05:47:34;;;;;;;68.10;36.48;;;;;;;3.84;81.35;101312.36;1608876;86;21217;-57
2021/12/14 05:50:51;;;;;;;71.70;40.65;;;;;;;3.75;81.53;101313.91;1622216;86;21261;-58
2021/12/14 05:53:56;;;;;;;61.63;32.05;;;;;;;3.78;81.90;101310.98;1702439;80;21288;-54
2021/12/14 05:57:04;;;;;;;68.62;35.00;;;;;;;3.85;81.98;101320.41;1685241;83;21271;-57
2021/12/14 06:00:14;;;;;;;71.17;36.38;;;;;;;3.80;81.77;101325.28;1697921;83;21793;-58
2021/12/14 06:03:31;;;;;;;64.75;34.43;;;;;;;3.81;82.04;101321.59;1695992;83;21531;-58
2021/12/14 06:06:42;;;;;;;65.67;34.08;;;;;;;3.89;82.32;101320.55;1702116;82;21205;-57
2021/12/14 06:09:51;;;;;;;78.85;39.13;;;;;;;3.97;82.31;101322.70;1710198;82;21619;-57
2021/12/14 06:13:01;;;;;;;59.33;33.75;;;;;;;4.02;82.19;101320.05;1697714;82;21276;-56
2021/12/14 06:16:08;;;;;;;63.83;32.65;;;;;;;4.04;82.15;101316.72;1675771;84;21578;-56
2021/12/14 06:19:22;;;;;;;61.45;32.05;;;;;;;4.08;82.06;101320.95;1697990;84;21307;-57
2021/12/14 06:22:28;;;;;;;48.40;27.87;;;;;;;4.13;82.08;101318.77;1692926;84;21208;-56
2021/12/14 06:25:35;;;;;;;56.45;30.72;;;;;;;4.18;82.04;101319.31;1703999;84;21260;-57
2021/12/14 06:28:40;;;;;;;50.35;27.05;;;;;;;4.25;81.97;101319.22;1686929;84;21227;-56
2021/12/14 06:31:46;;;;;;;44.18;26.25;;;;;;;4.29;81.73;101314.45;1684645;84;21209;-57
2021/12/14 06:35:10;;;;;;;45.95;25.95;;;;;;;4.31;81.58;101318.76;1690523;82;21236;-56
2021/12/14 06:38:29;;;;;;;43.42;25.52;;;;;;;4.37;81.45;101327.81;1646556;86;21283;-56
2021/12/14 06:41:36;;;;;;;39.10;23.85;;;;;;;4.40;81.30;101322.16;1681758;84;21770;-57
2021/12/14 06:44:42;;;;;;;43.70;25.70;;;;;;;4.43;81.18;101317.87;1677001;84;21336;-56
2021/12/14 06:47:48;;;;;;;49.65;27.85;;;;;;;4.46;81.04;101312.70;1687710;84;21193;-57
2021/12/14 06:51:14;;;;;;;47.25;27.85;;;;;;;4.50;80.91;101312.86;1698008;84;21240;-58
2021/12/14 06:54:28;;;;;;;48.30;26.12;;;;;;;4.53;80.81;101313.98;1686665;79;21278;-57
2021/12/14 06:57:51;;;;;;;43.73;25.30;;;;;;;4.57;80.78;101314.11;1660110;85;21680;-57
2021/12/14 07:01:06;;;;;;;47.90;25.12;;;;;;;4.56;80.53;101313.75;1689269;85;21203;-57
2021/12/14 07:04:20;;;;;;;41.23;23.55;;;;;;;4.58;80.42;101311.28;1690313;83;21760;-57
2021/12/14 07:07:32;;;;;;;42.08;23.83;;;;;;;4.56;80.19;101318.69;1672253;85;21280;-58
2021/12/14 07:10:46;;;;;;;53.15;26.25;;;;;;;4.55;80.12;101314.73;1657933;85;21216;-57
2021/12/14 07:13:53;;;;;;;42.62;23.98;;;;;;;4.55;80.08;101307.45;1671833;85;21898;-56
2021/12/14 07:17:10;;;;;;;48.70;25.55;;;;;;;4.58;80.05;101305.86;1672341;85;21260;-57
2021/12/14 07:20:23;;;;;;;47.95;25.43;;;;;;;4.59;79.90;101313.03;1677318;84;21193;-58
2021/12/14 07:23:36;;;;;;;43.20;24.18;;;;;;;4.55;79.83;101310.16;1661920;86;21788;-57
2021/12/14 07:26:42;;;;;;;46.90;25.95;;;;;;;4.58;79.86;101314.51;1694644;84;21219;-56
2021/12/14 07:29:49;;;;;;;46.50;29.45;;;;;;;4.58;79.76;101314.51;1639532;86;21911;-57
2021/12/14 07:32:59;;;;;;;49.67;28.23;;;;;;;4.58;79.78;101324.84;1687749;82;21211;-57
2021/12/14 07:36:11;;;;;;;54.70;31.65;;;;;;;4.58;79.86;101322.13;1702636;83;21745;-57
2021/12/14 07:39:20;;;;;;;47.65;26.80;;;;;;;4.56;79.80;101328.66;1717920;82;21728;-57
2021/12/14 07:42:29;;;;;;;57.03;30.57;;;;;;;4.57;79.75;101338.52;1697456;84;21205;-56
2021/12/14 07:45:34;;;;;;;52.17;30.43;;;;;;;4.50;79.61;101334.03;1665259;84;21243;-56
2021/12/14 07:48:53;;;;;;;56.13;31.42;;;;;;;4.45;79.77;101332.19;1663925;84;21397;-55
2021/12/14 07:52:14;;;;;;;54.03;30.00;;;;;;;4.46;79.95;101335.26;1680283;84;21200;-56
2021/12/14 07:55:27;;;;;;;56.65;32.60;;;;;;;4.49;80.08;101331.44;1660634;81;21802;-56
2021/12/14 07:58:46;;;;;;;61.68;33.35;;;;;;;4.51;80.04;101331.72;1706175;84;21599;-57
2021/12/14 08:01:48;;;;;;;61.00;34.45;;;;;;;4.49;79.96;101335.50;1681902;85;21207;-57
2021/12/14 08:04:59;;;;;;;57.40;34.20;;;;;;;4.52;80.17;101333.44;1709776;84;22030;-59
2021/12/14 08:08:16;;;;;;;46.95;29.02;;;;;;;4.51;79.93;101329.02;1710537;84;21208;-57
2021/12/14 08:14:39;;;;;;;48.05;25.90;;;;;;;4.37;79.72;101341.85;1698487;84;21200;-56
2021/12/14 08:17:44;;;;;;;46.45;25.43;;;;;;;4.35;80.08;101337.90;1681678;84;21762;-56
2021/12/14 08:21:05;;;;;;;50.88;25.80;;;;;;;4.42;80.27;101331.03;1682556;85;21209;-56
2021/12/14 08:24:13;;;;;;;43.90;22.58;;;;;;;4.52;80.36;101323.07;1682142;85;21792;-55
2021/12/14 08:27:28;;;;;;;44.25;26.95;;;;;;;4.59;80.15;101315.75;1682377;84;21224;-56
2021/12/14 08:30:34;;;;;;;45.08;27.02;;;;;;;4.63;80.04;101319.58;1681844;85;21204;-55
2021/12/14 08:33:47;;;;;;;47.25;26.57;;;;;;;4.66;79.86;101319.34;1659753;85;21829;-56
2021/12/14 08:36:58;;;;;;;46.92;26.97;;;;;;;4.69;79.80;101323.18;1647365;85;21223;-57
2021/12/14 08:40:09;;;;;;;44.95;26.33;;;;;;;4.70;79.55;101321.70;1659310;86;21698;-57
2021/12/14 08:43:23;;;;;;;45.78;24.67;;;;;;;4.69;79.56;101325.89;1658092;85;21295;-57
2021/12/14 08:46:30;;;;;;;46.75;24.92;;;;;;;4.70;79.43;101324.90;1638990;86;21270;-58
2021/12/14 08:49:34;;;;;;;36.05;21.82;;;;;;;4.66;79.23;101331.55;1643987;85;21249;-57
2021/12/14 08:52:42;;;;;;;37.60;21.85;;;;;;;4.69;79.51;101322.70;1645721;86;21203;-56
2021/12/14 08:55:51;;;;;;;42.33;25.00;;;;;;;4.76;79.50;101329.88;1659523;81;21215;-56
2021/12/14 08:58:58;;;;;;;44.73;24.27;;;;;;;4.78;79.20;101330.12;1662465;84;21238;-57
2021/12/14 09:02:06;;;;;;;42.80;25.37;;;;;;;4.82;79.30;101319.41;1658327;85;21217;-57
2021/12/14 09:05:17;;;;;;;40.80;23.92;;;;;;;4.88;79.29;101324.39;1647723;84;21229;-57
2021/12/14 09:08:24;;;;;;;46.77;25.48;;;;;;;4.93;79.18;101312.67;1659032;84;21757;-56
2021/12/14 09:11:32;;;;;;;39.48;23.10;;;;;;;4.98;78.84;101302.85;1684344;84;21203;-56
2021/12/14 09:14:38;;;;;;;46.63;25.25;;;;;;;4.95;78.60;101296.31;1669830;84;21223;-57
2021/12/14 09:17:48;;;;;;;37.30;22.35;;;;;;;4.95;78.54;101295.80;1662054;86;21783;-57
2021/12/14 09:21:04;;;;;;;46.83;26.93;;;;;;;4.98;78.47;101294.71;1673048;85;21223;-56
2021/12/14 09:24:18;;;;;;;50.73;28.02;;;;;;;5.00;78.35;101296.31;1673010;84;21208;-57
2021/12/14 09:27:27;;;;;;;44.53;26.68;;;;;;;5.01;78.25;101298.03;1665957;84;21220;-57
2021/12/14 09:30:35;;;;;;;44.03;25.43;;;;;;;4.96;78.77;101293.48;1672669;85;21228;-57
2021/12/14 09:33:42;;;;;;;41.73;25.10;;;;;;;4.98;79.20;101289.28;1672040;85;21252;-58
2021/12/14 09:36:50;;;;;;;44.23;24.75;;;;;;;4.97;79.26;101288.89;1672681;85;21760;-57
2021/12/14 09:40:00;;;;;;;48.85;26.15;;;;;;;4.94;79.00;101287.77;1684749;84;21590;-56
2021/12/14 09:43:11;;;;;;;44.35;24.82;;;;;;;4.95;78.98;101285.45;1682971;84;21301;-57
2021/12/14 09:46:16;;;;;;;44.95;24.75;;;;;;;4.95;78.66;101287.66;1702089;84;21212;-57
2021/12/14 09:49:21;;;;;;;45.08;25.62;;;;;;;4.91;78.42;101290.73;1687906;83;21296;-58
2021/12/14 09:52:33;;;;;;;40.17;22.90;;;;;;;4.92;78.50;101282.95;1683919;83;21801;-57
2021/12/14 09:55:40;;;;;;;40.00;23.20;;;;;;;4.95;78.29;101289.02;1679273;84;21300;-56
2021/12/14 09:58:58;;;;;;;40.95;24.43;;;;;;;4.91;78.10;101292.95;1683479;83;21817;-58
2021/12/14 10:02:09;;;;;;;38.95;22.30;;;;;;;4.91;78.13;101280.75;1660695;85;21271;-57
2021/12/14 10:05:23;;;;;;;40.08;23.55;;;;;;;4.99;78.29;101293.23;1636053;86;21217;-58
2021/12/14 10:08:34;;;;;;;39.18;23.15;;;;;;;5.08;78.34;101297.95;1680000;85;21196;-57
2021/12/14 10:15:02;;;;;;;39.75;21.70;;;;;;;5.13;78.14;101297.58;1659854;85;21300;-57
2021/12/14 10:18:16;;;;;;;42.05;21.95;;;;;;;5.18;78.05;101298.09;1656448;86;21594;-56
2021/12/14 10:21:39;;;;;;;36.40;21.62;;;;;;;5.21;77.94;101297.38;1642862;86;21217;-57
2021/12/14 10:24:46;;;;;;;33.73;19.10;;;;;;;5.23;77.55;101293.18;1646512;86;21276;-53
2021/12/14 10:27:58;;;;;;;33.75;20.30;;;;;;;5.21;77.68;101293.78;1661402;83;21229;-53
2021/12/14 10:31:09;;;;;;;35.83;21.05;;;;;;;5.24;77.61;101288.11;1664414;84;21586;-54
2021/12/14 10:34:24;;;;;;;31.15;19.87;;;;;;;5.26;77.36;101284.80;1674042;84;21801;-53
2021/12/14 10:44:09;;;;;;;28.47;16.67;;;;;;;5.32;76.73;101274.80;1689989;85;20605;-53
2021/12/14 10:47:15;;;;;;;36.20;19.67;;;;;;;5.26;76.48;101273.45;1665848;85;21194;-53
2021/12/14 10:50:23;;;;;;;31.97;19.12;;;;;;;5.25;76.37;101278.48;1649135;86;21802;-53
2021/12/14 10:53:29;;;;;;;38.60;20.90;;;;;;;5.19;76.13;101276.26;1638941;87;21256;-53
2021/12/14 10:56:39;;;;;;;35.28;19.50;;;;;;;5.04;76.21;101271.17;1638393;87;21594;-54
2021/12/14 10:59:49;;;;;;;51.75;26.73;;;;;;;5.01;76.37;101268.70;1661932;83;21720;-52
2021/12/14 11:03:00;;;;;;;39.70;20.97;;;;;;;4.98;76.56;101264.87;1653947;84;21730;-53
2021/12/14 11:06:07;;;;;;;61.40;29.45;;;;;;;4.98;76.61;101267.58;1639767;86;21269;-54
2021/12/14 11:09:41;;;;;;;57.58;28.07;;;;;;;5.02;76.66;101259.56;1662131;86;21233;-54
2021/12/14 11:12:36;;;;;;;43.45;22.93;;;;;;;5.00;76.55;101254.25;1665403;85;21344;-54
2021/12/14 11:15:52;;;;;;;53.25;28.98;;;;;;;5.00;76.48;101254.73;1665609;85;21352;-53
2021/12/14 11:18:57;;;;;;;35.52;21.35;;;;;;;4.89;76.52;101253.34;1688615;84;21856;-54
2021/12/14 11:22:18;;;;;;;39.35;20.00;;;;;;;4.84;76.77;101251.48;1688943;84;21712;-53
2021/12/14 11:25:28;;;;;;;33.60;19.05;;;;;;;4.80;76.82;101253.59;1663283;84;21233;-53
2021/12/14 11:28:54;;;;;;;35.60;19.52;;;;;;;4.79;76.79;101253.70;1665118;85;21296;-53
2021/12/14 11:32:02;;;;;;;33.05;21.20;;;;;;;4.77;77.04;101251.59;1666164;85;21348;-53
2021/12/14 11:35:15;;;;;;;42.08;24.37;;;;;;;4.77;77.10;101249.76;1664069;85;21234;-54
2021/12/14 11:38:38;;;;;;;41.73;21.77;;;;;;;4.79;77.28;101250.48;1663383;84;21273;-53
2021/12/14 11:41:58;;;;;;;44.85;21.70;;;;;;;4.84;77.32;101252.83;1645612;85;21206;-52
2021/12/14 11:45:16;;;;;;;34.48;19.10;;;;;;;4.86;76.95;101257.66;1641777;86;21535;-52
2021/12/14 11:48:21;;;;;;;41.90;22.93;;;;;;;4.86;76.68;101254.95;1647098;86;21244;-53
2021/12/14 11:51:27;;;;;;;43.02;25.12;;;;;;;4.84;76.41;101251.48;1662637;85;21206;-52
2021/12/14 11:54:32;;;;;;;45.25;26.07;;;;;;;4.83;76.62;101256.55;1659465;84;21294;-52
2021/12/14 11:57:39;;;;;;;38.13;23.30;;;;;;;4.85;76.62;101254.10;1637643;87;21268;-51
2021/12/14 12:00:48;;;;;;;45.78;25.72;;;;;;;4.81;76.68;101258.50;1653985;84;21213;-51
2021/12/14 12:04:16;;;;;;;39.20;24.05;;;;;;;4.70;76.84;101255.27;1669070;84;21379;-52
2021/12/14 12:10:51;;;;;;;34.98;18.50;;;;;;;4.71;77.51;101256.14;1655519;86;21334;-52
2021/12/14 12:13:56;;;;;;;32.42;19.82;;;;;;;4.71;77.40;101254.78;1661273;85;21742;-52
2021/12/14 12:17:06;;;;;;;33.05;19.27;;;;;;;4.74;77.60;101262.16;1638473;86;21225;-52
2021/12/14 12:20:27;;;;;;;34.27;19.23;;;;;;;4.69;77.26;101271.66;1683601;84;21742;-52
2021/12/14 12:23:33;;;;;;;30.60;18.65;;;;;;;4.68;77.55;101269.94;1654978;84;21232;-55
2021/12/14 12:26:39;;;;;;;35.78;19.98;;;;;;;4.68;77.39;101264.52;1645318;86;21934;-53
2021/12/14 12:29:45;;;;;;;36.48;19.23;;;;;;;4.63;77.61;101280.27;1653747;86;21190;-54
2021/12/14 12:32:50;;;;;;;33.50;19.48;;;;;;;4.59;77.67;101285.05;1649367;86;21380;-54
2021/12/14 12:36:25;;;;;;;42.75;21.00;;;;;;;4.61;77.93;101289.87;1648731;86;21250;-51
2021/12/14 12:39:31;;;;;;;36.23;19.17;;;;;;;4.64;77.95;101290.98;1640504;87;22136;-51
2021/12/14 12:42:39;;;;;;;39.53;20.12;;;;;;;4.64;77.89;101289.64;1668757;86;21579;-51
2021/12/14 12:45:45;;;;;;;37.80;20.37;;;;;;;4.59;77.82;101279.14;1670479;84;21240;-50
2021/12/14 12:49:15;;;;;;;36.23;19.23;;;;;;;4.61;77.97;101268.17;1669147;84;21205;-50
2021/12/14 12:52:30;;;;;;;33.25;19.15;;;;;;;4.63;77.84;101259.41;1664055;84;21541;-54
2021/12/14 12:55:35;;;;;;;35.23;16.85;;;;;;;4.54;77.56;101281.33;1662647;84;21753;-52
2021/12/14 12:58:45;;;;;;;37.83;18.23;;;;;;;4.53;77.72;101291.78;1671924;84;21770;-53
2021/12/14 13:01:50;;;;;;;46.55;24.10;;;;;;;4.53;77.70;101288.22;1698628;81;21218;-51
2021/12/14 13:05:06;;;;;;;33.33;18.95;;;;;;;4.51;77.70;101297.83;1678519;85;21766;-52
2021/12/14 13:08:33;;;;;;;33.60;18.73;;;;;;;4.47;77.69;101303.09;1633112;86;21829;-53
2021/12/14 13:11:42;;;;;;;30.12;17.48;;;;;;;4.47;77.77;101299.53;1637149;86;21213;-52
2021/12/14 13:14:49;;;;;;;34.18;18.37;;;;;;;4.42;77.93;101286.30;1678431;84;21571;-52
2021/12/14 13:17:55;;;;;;;31.30;17.95;;;;;;;4.45;78.02;101286.09;1653318;85;21299;-53
2021/12/14 13:21:15;;;;;;;45.35;24.43;;;;;;;4.42;77.88;101289.01;1663574;85;21251;-51
2021/12/14 13:24:38;;;;;;;48.65;24.65;;;;;;;4.33;77.87;101280.22;1652885;85;21291;-52
2021/12/14 13:27:46;;;;;;;46.15;25.57;;;;;;;4.29;78.20;101277.37;1627187;85;21231;-53
2021/12/14 13:30:52;;;;;;;57.13;26.85;;;;;;;4.26;78.40;101283.51;1671629;83;21310;-51
2021/12/14 13:33:59;;;;;;;39.92;20.97;;;;;;;4.24;78.50;101287.69;1645722;86;21256;-51
2021/12/14 13:37:08;;;;;;;37.78;20.43;;;;;;;4.21;78.82;101287.92;1660445;86;21220;-52
2021/12/14 13:40:19;;;;;;;40.52;21.55;;;;;;;4.24;78.97;101295.82;1657033;85;21622;-50
2021/12/14 13:43:31;;;;;;;35.43;19.60;;;;;;;4.25;79.05;101308.37;1653865;84;21240;-50
2021/12/14 13:46:37;;;;;;;40.52;20.17;;;;;;;4.28;79.22;101318.98;1663166;85;21255;-51
2021/12/14 13:49:44;;;;;;;35.73;18.65;;;;;;;4.35;79.20;101313.98;1676145;83;21661;-51
2021/12/14 13:52:53;;;;;;;36.88;16.73;;;;;;;4.40;79.08;101315.87;1692935;83;21741;-52
2021/12/14 13:56:04;;;;;;;33.60;18.12;;;;;;;4.42;78.94;101313.41;1692653;84;21275;-51
2021/12/14 13:59:11;;;;;;;33.50;17.25;;;;;;;4.44;78.76;101311.94;1665285;83;21752;-52
2021/12/14 14:02:19;;;;;;;33.08;17.80;;;;;;;4.44;78.70;101308.74;1689608;79;21274;-52
2021/12/14 14:05:27;;;;;;;32.60;17.75;;;;;;;4.45;78.69;101306.43;1653554;85;21605;-51
2021/12/14 14:08:50;;;;;;;42.38;20.97;;;;;;;4.45;78.79;101301.01;1651806;83;21248;-51
2021/12/14 14:12:23;;;;;;;39.55;21.62;;;;;;;4.49;78.85;101302.49;1683356;85;21234;-52
2021/12/14 14:15:35;;;;;;;40.28;21.33;;;;;;;4.44;78.39;101318.23;1648407;85;21224;-50
2021/12/14 14:18:47;;;;;;;38.58;20.88;;;;;;;4.34;78.39;101343.44;1671084;85;21237;-51
2021/12/14 14:22:04;;;;;;;39.35;21.05;;;;;;;4.30;78.40;101345.50;1668607;85;21246;-52
2021/12/14 14:25:14;;;;;;;39.33;21.10;;;;;;;4.30;78.55;101336.48;1664535;84;21873;-52
2021/12/14 14:28:46;;;;;;;45.83;22.02;;;;;;;4.23;78.18;101337.42;1681992;83;21320;-51
2021/12/14 14:31:58;;;;;;;39.92;19.98;;;;;;;4.17;78.43;101335.69;1650572;85;21290;-52
2021/12/14 14:35:06;;;;;;;;;;;;;;;4.07;78.26;101330.06;1678922;84;21205;-53
2021/12/14 14:38:37;;;;;;;34.63;19.30;;;;;;;4.04;78.59;101335.68;1672870;84;20224;-52
2021/12/14 14:41:57;;;;;;;36.93;19.95;;;;;;;4.06;78.88;101335.09;1686134;83;21298;-52
2021/12/14 14:45:06;;;;;;;46.40;24.05;;;;;;;4.04;78.81;101343.80;1669083;83;21220;-52
2021/12/14 14:48:30;;;;;;;63.65;29.07;;;;;;;4.10;78.99;101341.16;1682853;85;21271;-51
2021/12/14 14:52:06;;;;;;;87.82;35.15;;;;;;;4.11;78.79;101321.20;1675189;85;21229;-52
2021/12/14 14:55:21;;;;;;;58.75;27.55;;;;;;;4.08;78.79;101324.14;1676295;85;21204;-53
2021/12/14 14:58:36;;;;;;;69.30;27.10;;;;;;;4.10;78.75;101323.06;1651152;84;21253;-52
2021/12/14 15:01:44;;;;;;;71.53;31.52;;;;;;;4.15;78.83;101330.38;1678538;83;21201;-51
2021/12/14 15:05:13;;;;;;;66.20;31.00;;;;;;;4.08;78.37;101326.37;1687060;81;21307;-52
2021/12/14 15:08:37;;;;;;;71.42;32.50;;;;;;;3.96;78.42;101325.92;1654616;86;21749;-52
2021/12/14 15:11:55;;;;;;;61.90;27.17;;;;;;;3.97;78.86;101322.22;1675311;85;21617;-51
2021/12/14 15:15:03;;;;;;;58.23;28.32;;;;;;;4.04;79.12;101316.72;1680212;84;21760;-52
2021/12/14 15:18:09;;;;;;;54.67;27.07;;;;;;;4.00;78.91;101321.99;1657093;85;22260;-51